createdAt,value
2022-08-07T00:01:44.085Z,13.09
2022-08-07T00:04:09.266Z,13.05
2022-08-07T00:06:41.059Z,12.91
2022-08-07T00:09:21.150Z,12.91
2022-08-07T00:11:55.742Z,13.01
2022-08-07T00:14:31.396Z,13.03
2022-08-07T00:17:00.506Z,13.01
2022-08-07T00:20:00.295Z,13.09
2022-08-07T00:22:34.715Z,12.90
2022-08-07T00:25:05.689Z,12.98
2022-08-07T00:27:35.931Z,12.85
2022-08-07T00:30:27.963Z,12.67
2022-08-07T00:32:57.287Z,12.72
2022-08-07T00:35:29.872Z,12.60
2022-08-07T00:37:58.792Z,12.67
2022-08-07T00:40:39.123Z,12.66
2022-08-07T00:44:01.925Z,12.62
2022-08-07T00:46:02.195Z,12.63
2022-08-07T00:48:32.068Z,12.58
2022-08-07T00:51:03.176Z,12.62
2022-08-07T00:53:38.616Z,12.58
2022-08-07T00:56:17.386Z,12.62
2022-08-07T00:58:46.742Z,12.57
2022-08-07T01:01:16.251Z,12.42
2022-08-07T01:03:55.864Z,12.38
2022-08-07T01:06:31.813Z,12.35
2022-08-07T01:09:01.279Z,12.36
2022-08-07T01:12:27.907Z,12.19
2022-08-07T01:14:21.144Z,12.37
2022-08-07T01:16:56.778Z,12.30
2022-08-07T01:19:26.461Z,12.33
2022-08-07T01:21:56.796Z,12.16
2022-08-07T01:24:25.807Z,12.19
2022-08-07T01:26:54.354Z,12.09
2022-08-07T01:29:27.743Z,12.05
2022-08-07T01:32:00.035Z,12.01
2022-08-07T01:34:32.825Z,12.04
2022-08-07T01:37:03.306Z,11.91
2022-08-07T01:39:40.417Z,11.82
2022-08-07T01:42:37.966Z,11.93
2022-08-07T01:45:03.665Z,11.85
2022-08-07T01:48:18.339Z,11.93
2022-08-07T01:50:22.817Z,11.90
2022-08-07T01:52:59.691Z,11.87
2022-08-07T01:55:30.584Z,11.77
2022-08-07T01:58:27.272Z,11.79
2022-08-07T02:01:09.367Z,11.82
2022-08-07T02:03:48.940Z,11.76
2022-08-07T02:06:31.383Z,11.61
2022-08-07T02:09:05.337Z,11.65
2022-08-07T02:12:03.887Z,11.66
2022-08-07T02:14:40.331Z,11.58
2022-08-07T02:17:09.797Z,11.63
2022-08-07T02:20:07.733Z,11.44
2022-08-07T02:22:29.393Z,11.39
2022-08-07T02:25:00.496Z,11.48
2022-08-07T02:27:34.268Z,11.32
2022-08-07T02:30:07.212Z,11.41
2022-08-07T02:32:39.591Z,11.23
2022-08-07T02:36:27.091Z,11.31
2022-08-07T02:38:16.562Z,11.37
2022-08-07T02:40:46.741Z,11.31
2022-08-07T02:43:16.376Z,11.36
2022-08-07T02:46:11.242Z,11.31
2022-08-07T02:48:40.608Z,11.24
2022-08-07T02:51:42.701Z,11.21
2022-08-07T02:54:14.672Z,11.25
2022-08-07T02:56:45.590Z,11.25
2022-08-07T02:59:24.078Z,11.22
2022-08-07T03:01:56.320Z,11.20
2022-08-07T03:04:28.453Z,11.03
2022-08-07T03:07:07.066Z,11.04
2022-08-07T03:09:44.680Z,10.92
2022-08-07T03:12:21.755Z,10.99
2022-08-07T03:14:53.581Z,10.94
2022-08-07T03:17:22.584Z,10.91
2022-08-07T03:19:54.506Z,10.76
2022-08-07T03:22:24.283Z,10.75
2022-08-07T03:25:00.163Z,10.71
2022-08-07T03:27:59.046Z,10.70
2022-08-07T03:30:18.939Z,10.59
2022-08-07T03:32:58.736Z,10.73
2022-08-07T03:35:43.748Z,10.71
2022-08-07T03:38:17.879Z,10.73
2022-08-07T03:40:53.962Z,10.81
2022-08-07T03:43:32.381Z,10.80
2022-08-07T03:46:10.442Z,10.72
2022-08-07T03:49:02.635Z,10.70
2022-08-07T03:51:47.016Z,10.64
2022-08-07T03:54:35.110Z,10.69
2022-08-07T03:57:07.363Z,10.77
2022-08-07T03:59:37.801Z,10.70
2022-08-07T04:02:15.148Z,10.71
2022-08-07T04:04:45.165Z,10.77
2022-08-07T04:07:17.342Z,10.78
2022-08-07T04:09:50.548Z,10.75
2022-08-07T04:12:24.441Z,10.67
2022-08-07T04:15:00.154Z,10.79
2022-08-07T04:18:04.647Z,10.82
2022-08-07T04:20:16.519Z,10.83
2022-08-07T04:22:53.464Z,10.85
2022-08-07T04:25:30.458Z,10.84
2022-08-07T04:28:04.534Z,10.92
2022-08-07T04:30:44.284Z,11.00
2022-08-07T04:33:25.393Z,10.99
2022-08-07T04:35:54.485Z,11.11
2022-08-07T04:38:23.629Z,11.15
2022-08-07T04:40:56.509Z,11.15
2022-08-07T04:44:09.706Z,11.30
2022-08-07T04:46:25.992Z,11.41
2022-08-07T04:49:18.043Z,11.37
2022-08-07T04:51:58.599Z,11.56
2022-08-07T04:54:34.194Z,11.68
2022-08-07T04:58:14.865Z,11.79
2022-08-07T05:00:11.933Z,11.88
2022-08-07T05:02:51.316Z,12.01
2022-08-07T05:05:53.154Z,12.07
2022-08-07T05:08:19.536Z,12.23
2022-08-07T05:11:19.583Z,12.28
2022-08-07T05:14:52.325Z,12.41
2022-08-07T05:16:52.719Z,12.59
2022-08-07T05:19:32.674Z,12.61
2022-08-07T05:22:13.860Z,12.78
2022-08-07T05:24:57.358Z,12.76
2022-08-07T05:28:16.692Z,12.90
2022-08-07T05:30:16.878Z,13.05
2022-08-07T05:33:02.326Z,13.15
2022-08-07T05:35:41.962Z,13.25
2022-08-07T05:38:11.215Z,13.35
2022-08-07T05:40:50.591Z,13.39
2022-08-07T05:43:50.178Z,13.42
2022-08-07T05:46:08.564Z,13.59
2022-08-07T05:48:36.946Z,13.67
2022-08-07T05:51:31.731Z,13.74
2022-08-07T05:54:12.940Z,13.97
2022-08-07T05:56:54.221Z,14.03
2022-08-07T05:59:23.197Z,14.35
2022-08-07T06:01:52.009Z,14.38
2022-08-07T06:04:29.774Z,14.52
2022-08-07T06:07:04.436Z,14.61
2022-08-07T06:10:04.176Z,14.68
2022-08-07T06:12:31.836Z,14.98
2022-08-07T06:15:05.815Z,15.25
2022-08-07T06:17:41.228Z,15.55
2022-08-07T06:20:31.764Z,15.80
2022-08-07T06:23:45.686Z,15.93
2022-08-07T06:26:02.624Z,16.02
2022-08-07T06:28:30.861Z,16.03
2022-08-07T06:31:01.444Z,16.06
2022-08-07T06:33:35.918Z,16.29
2022-08-07T06:36:13.472Z,16.39
2022-08-07T06:38:58.367Z,16.63
2022-08-07T06:42:00.584Z,16.85
2022-08-07T06:44:21.203Z,17.01
2022-08-07T06:46:53.347Z,17.03
2022-08-07T06:49:52.356Z,17.20
2022-08-07T06:52:35.727Z,17.10
2022-08-07T06:55:34.102Z,17.27
2022-08-07T06:58:06.679Z,17.33
2022-08-07T07:00:43.629Z,17.53
2022-08-07T07:03:17.642Z,17.57
2022-08-07T07:06:05.488Z,17.83
2022-08-07T07:08:39.630Z,18.07
2022-08-07T07:12:10.750Z,18.05
2022-08-07T07:14:10.407Z,17.93
2022-08-07T07:16:50.750Z,17.84
2022-08-07T07:19:55.526Z,18.01
2022-08-07T07:22:34.048Z,18.22
2022-08-07T07:26:30.460Z,18.37
2022-08-07T07:28:42.571Z,18.63
2022-08-07T07:31:04.667Z,18.50
2022-08-07T07:33:39.132Z,18.73
2022-08-07T07:36:13.080Z,18.74
2022-08-07T07:38:47.449Z,18.79
2022-08-07T07:41:21.344Z,18.97
2022-08-07T07:44:17.386Z,19.09
2022-08-07T07:46:55.176Z,18.85
2022-08-07T07:50:36.105Z,18.70
2022-08-07T07:52:19.628Z,18.80
2022-08-07T07:54:54.215Z,18.98
2022-08-07T07:57:44.107Z,18.89
2022-08-07T08:00:29.127Z,18.96
2022-08-07T08:03:05.912Z,19.14
2022-08-07T08:05:50.908Z,19.04
2022-08-07T08:08:34.549Z,19.06
2022-08-07T08:11:05.979Z,18.89
2022-08-07T08:13:53.061Z,19.02
2022-08-07T08:16:29.960Z,19.20
2022-08-07T08:19:09.953Z,19.44
2022-08-07T08:22:06.066Z,19.45
2022-08-07T08:25:09.384Z,19.59
2022-08-07T08:27:57.523Z,19.74
2022-08-07T08:30:34.817Z,20.00
2022-08-07T08:33:15.097Z,20.14
2022-08-07T08:35:49.922Z,20.29
2022-08-07T08:38:29.344Z,20.29
2022-08-07T08:41:03.071Z,20.22
2022-08-07T08:43:42.875Z,20.12
2022-08-07T08:46:34.446Z,20.21
2022-08-07T08:49:12.534Z,20.43
2022-08-07T08:52:00.892Z,20.38
2022-08-07T08:54:36.162Z,20.36
2022-08-07T08:57:08.470Z,20.31
2022-08-07T08:59:48.104Z,20.34
2022-08-07T09:02:34.832Z,20.36
2022-08-07T09:05:31.986Z,20.30
2022-08-07T09:08:24.295Z,20.44
2022-08-07T09:11:03.511Z,20.45
2022-08-07T09:13:43.419Z,20.49
2022-08-07T09:16:25.229Z,20.60
2022-08-07T09:19:51.242Z,20.66
2022-08-07T09:24:28.944Z,20.74
2022-08-07T09:25:07.070Z,21.00
2022-08-07T09:28:00.811Z,21.28
2022-08-07T09:30:36.571Z,21.25
2022-08-07T09:33:16.745Z,21.19
2022-08-07T09:36:01.317Z,21.25
2022-08-07T09:38:43.412Z,21.45
2022-08-07T09:41:27.815Z,21.38
2022-08-07T09:44:19.218Z,21.23
2022-08-07T09:47:51.360Z,21.23
2022-08-07T09:50:18.930Z,21.28
2022-08-07T09:52:51.871Z,21.19
2022-08-07T09:55:29.318Z,21.28
2022-08-07T09:58:17.803Z,21.28
2022-08-07T10:01:00.584Z,21.28
2022-08-07T10:04:06.335Z,21.19
2022-08-07T10:06:55.702Z,21.05
2022-08-07T10:10:00.102Z,21.31
2022-08-07T10:12:52.598Z,21.36
2022-08-07T10:15:48.813Z,21.48
2022-08-07T10:18:38.152Z,21.73
2022-08-07T10:21:50.472Z,21.86
2022-08-07T10:24:25.117Z,22.11
2022-08-07T10:27:06.642Z,21.92
2022-08-07T10:29:54.386Z,22.11
2022-08-07T10:32:54.448Z,22.11
2022-08-07T10:35:55.982Z,22.19
2022-08-07T10:38:35.971Z,21.98
2022-08-07T10:41:47.325Z,21.92
2022-08-07T10:44:19.490Z,21.93
2022-08-07T10:47:03.592Z,22.10
2022-08-07T10:49:49.871Z,22.38
2022-08-07T10:52:31.836Z,22.44
2022-08-07T10:55:32.501Z,22.59
2022-08-07T10:58:07.196Z,22.85
2022-08-07T11:00:50.534Z,22.86
2022-08-07T11:03:37.635Z,22.76
2022-08-07T11:06:24.042Z,22.85
2022-08-07T11:09:00.184Z,22.65
2022-08-07T11:11:35.973Z,22.60
2022-08-07T11:14:45.905Z,22.80
2022-08-07T11:17:01.868Z,22.66
2022-08-07T11:19:39.649Z,22.58
2022-08-07T11:22:26.306Z,22.49
2022-08-07T11:25:07.362Z,22.63
2022-08-07T11:28:02.841Z,22.68
2022-08-07T11:30:42.905Z,22.38
2022-08-07T11:33:58.463Z,22.49
2022-08-07T11:36:25.142Z,22.82
2022-08-07T11:39:07.884Z,22.98
2022-08-07T11:42:01.863Z,23.05
2022-08-07T11:44:39.942Z,23.09
2022-08-07T11:47:39.185Z,23.03
2022-08-07T11:50:33.201Z,23.37
2022-08-07T11:53:17.408Z,23.52
2022-08-07T11:56:09.405Z,23.34
2022-08-07T11:58:58.976Z,23.17
2022-08-07T12:02:00.450Z,22.93
2022-08-07T12:04:45.763Z,22.97
2022-08-07T12:07:38.810Z,22.94
2022-08-07T12:10:12.570Z,23.39
2022-08-07T12:12:46.705Z,23.27
2022-08-07T12:15:46.513Z,23.91
2022-08-07T12:18:11.554Z,23.95
2022-08-07T12:20:49.094Z,23.91
2022-08-07T12:24:07.758Z,24.24
2022-08-07T12:26:46.058Z,24.56
2022-08-07T12:29:38.253Z,24.93
2022-08-07T12:32:14.091Z,25.39
2022-08-07T12:34:49.541Z,25.33
2022-08-07T12:37:23.645Z,25.99
2022-08-07T12:39:58.891Z,24.85
2022-08-07T12:42:32.194Z,26.05
2022-08-07T12:45:06.608Z,28.38
2022-08-07T12:47:43.965Z,28.59
2022-08-07T12:50:38.954Z,28.96
2022-08-07T12:53:17.371Z,30.09
2022-08-07T12:56:02.989Z,31.87
2022-08-07T12:58:39.924Z,33.27
2022-08-07T13:01:17.271Z,34.13
2022-08-07T13:04:05.212Z,30.51
2022-08-07T13:07:07.358Z,30.70
2022-08-07T13:10:28.678Z,32.55
2022-08-07T13:13:48.487Z,36.22
2022-08-07T13:16:17.902Z,33.33
2022-08-07T13:18:56.490Z,37.14
2022-08-07T13:21:50.316Z,32.95
2022-08-07T13:24:25.822Z,33.51
2022-08-07T13:27:05.767Z,36.13
2022-08-07T13:29:42.375Z,37.16
2022-08-07T13:32:32.417Z,37.84
2022-08-07T13:35:09.205Z,41.15
2022-08-07T13:37:43.630Z,42.04
2022-08-07T13:40:36.156Z,41.16
2022-08-07T13:43:13.446Z,38.47
2022-08-07T13:46:10.799Z,39.41
2022-08-07T13:48:39.046Z,41.72
2022-08-07T13:51:27.510Z,40.97
2022-08-07T13:54:02.101Z,38.51
2022-08-07T13:56:36.312Z,39.89
2022-08-07T13:59:13.577Z,39.72
2022-08-07T14:02:04.408Z,39.78
2022-08-07T14:04:38.136Z,39.97
2022-08-07T14:07:16.636Z,39.99
2022-08-07T14:10:12.280Z,39.02
2022-08-07T14:12:41.828Z,40.17
2022-08-07T14:15:18.870Z,37.00
2022-08-07T14:18:27.116Z,40.71
2022-08-07T14:20:49.096Z,38.46
2022-08-07T14:23:59.036Z,39.21
2022-08-07T14:26:28.428Z,38.39
2022-08-07T14:29:04.319Z,40.83
2022-08-07T14:31:42.700Z,42.09
2022-08-07T14:34:20.236Z,42.01
2022-08-07T14:36:55.980Z,41.63
2022-08-07T14:40:15.653Z,41.60
2022-08-07T14:42:19.687Z,41.04
2022-08-07T14:44:53.964Z,41.93
2022-08-07T14:47:32.536Z,39.69
2022-08-07T14:50:06.953Z,40.41
2022-08-07T14:52:41.036Z,40.58
2022-08-07T14:55:11.555Z,40.81
2022-08-07T14:57:58.219Z,39.72
2022-08-07T15:00:31.184Z,41.18
2022-08-07T15:03:00.318Z,41.23
2022-08-07T15:05:54.910Z,38.29
2022-08-07T15:08:35.356Z,37.64
2022-08-07T15:11:53.059Z,38.55
2022-08-07T15:14:12.430Z,36.83
2022-08-07T15:20:33.160Z,35.90
2022-08-07T15:22:31.336Z,35.23
2022-08-07T15:25:16.964Z,36.05
2022-08-07T15:28:32.339Z,37.28
2022-08-07T15:33:33.938Z,35.24
2022-08-07T15:36:06.192Z,32.43
2022-08-07T15:38:51.754Z,31.41
2022-08-07T15:42:46.282Z,30.35
2022-08-07T15:44:23.551Z,29.70
2022-08-07T15:47:16.871Z,28.89
2022-08-07T15:50:06.133Z,27.83
2022-08-07T15:52:38.208Z,27.74
2022-08-07T15:55:11.357Z,27.52
2022-08-07T15:57:48.529Z,26.94
2022-08-07T16:00:31.599Z,27.01
2022-08-07T16:03:04.879Z,27.07
2022-08-07T16:05:33.639Z,26.42
2022-08-07T16:08:30.943Z,26.32
2022-08-07T16:11:00.850Z,26.19
2022-08-07T16:14:03.085Z,25.99
2022-08-07T16:16:48.909Z,25.96
2022-08-07T16:19:42.781Z,25.67
2022-08-07T16:22:37.688Z,25.62
2022-08-07T16:25:22.808Z,25.40
2022-08-07T16:28:02.308Z,25.28
2022-08-07T16:30:36.006Z,25.03
2022-08-07T16:34:03.155Z,25.18
2022-08-07T16:36:20.391Z,24.68
2022-08-07T16:39:02.157Z,24.66
2022-08-07T16:41:57.963Z,24.76
2022-08-07T16:45:14.982Z,24.79
2022-08-07T16:48:13.632Z,24.76
2022-08-07T16:51:20.459Z,24.45
2022-08-07T16:54:09.103Z,24.42
2022-08-07T16:56:53.293Z,24.41
2022-08-07T16:59:47.018Z,24.47
2022-08-07T17:02:52.445Z,24.18
2022-08-07T17:06:28.177Z,24.12
2022-08-07T17:09:09.837Z,24.19
2022-08-07T17:12:01.786Z,24.19
2022-08-07T17:14:26.630Z,24.05
2022-08-07T17:16:57.898Z,24.06
2022-08-07T17:20:02.055Z,23.96
2022-08-07T17:22:30.110Z,23.66
2022-08-07T17:25:10.202Z,23.54
2022-08-07T17:27:50.966Z,23.44
2022-08-07T17:30:26.706Z,23.32
2022-08-07T17:34:08.953Z,23.32
2022-08-07T17:36:00.295Z,23.36
2022-08-07T17:38:35.559Z,23.28
2022-08-07T17:42:01.627Z,23.25
2022-08-07T17:44:05.690Z,23.17
2022-08-07T17:46:42.064Z,23.12
2022-08-07T17:49:24.038Z,23.03
2022-08-07T17:52:00.812Z,22.99
2022-08-07T17:54:40.158Z,22.88
2022-08-07T17:57:56.061Z,22.70
2022-08-07T18:00:33.191Z,22.55
2022-08-07T18:03:18.163Z,22.44
2022-08-07T18:06:02.859Z,22.32
2022-08-07T18:09:01.433Z,22.22
2022-08-07T18:12:17.624Z,22.09
2022-08-07T18:14:29.339Z,21.98
2022-08-07T18:17:00.961Z,21.95
2022-08-07T18:21:10.963Z,21.93
2022-08-07T18:22:31.380Z,21.81
2022-08-07T18:25:23.935Z,21.76
2022-08-07T18:28:04.414Z,21.67
2022-08-07T18:30:40.490Z,21.57
2022-08-07T18:33:54.889Z,21.48
2022-08-07T18:36:33.238Z,21.37
2022-08-07T18:40:05.638Z,21.31
2022-08-07T18:42:05.165Z,21.21
2022-08-07T18:45:43.375Z,21.17
2022-08-07T18:47:45.297Z,21.07
2022-08-07T18:50:39.481Z,20.91
2022-08-07T18:53:17.762Z,20.79
2022-08-07T18:55:57.674Z,20.74
2022-08-07T18:58:39.610Z,20.57
2022-08-07T19:02:18.214Z,20.39
2022-08-07T19:04:19.665Z,20.46
2022-08-07T19:07:02.596Z,20.45
2022-08-07T19:09:56.690Z,20.38
2022-08-07T19:12:34.795Z,20.17
2022-08-07T19:16:02.837Z,20.17
2022-08-07T19:18:14.335Z,20.20
2022-08-07T19:21:09.123Z,20.08
2022-08-07T19:23:59.424Z,20.07
2022-08-07T19:26:55.547Z,19.89
2022-08-07T19:31:04.299Z,19.87
2022-08-07T19:32:28.745Z,19.84
2022-08-07T19:35:05.260Z,19.94
2022-08-07T19:37:56.210Z,19.75
2022-08-07T19:40:31.198Z,19.72
2022-08-07T19:43:01.309Z,19.75
2022-08-07T19:46:06.015Z,19.70
2022-08-07T19:48:24.849Z,19.64
2022-08-07T19:50:54.707Z,19.57
2022-08-07T19:54:34.718Z,19.56
2022-08-07T19:57:52.019Z,19.37
2022-08-07T19:59:06.909Z,19.37
2022-08-07T20:01:52.180Z,19.31
2022-08-07T20:04:31.546Z,19.38
2022-08-07T20:07:10.038Z,19.21
2022-08-07T20:10:37.204Z,19.24
2022-08-07T20:12:34.730Z,19.12
2022-08-07T20:15:09.709Z,19.16
2022-08-07T20:18:01.566Z,18.99
2022-08-07T20:20:32.468Z,18.98
2022-08-07T20:23:23.200Z,19.00
2022-08-07T20:25:55.756Z,18.91
2022-08-07T20:28:29.970Z,18.90
2022-08-07T20:30:58.912Z,18.84
2022-08-07T20:33:37.571Z,18.67
2022-08-07T20:36:08.250Z,18.13
2022-08-07T20:38:53.713Z,17.66
2022-08-07T20:41:34.064Z,17.52
2022-08-07T20:44:12.895Z,17.42
2022-08-07T20:46:44.662Z,17.17
2022-08-07T20:49:58.181Z,17.17
2022-08-07T20:52:02.494Z,17.14
2022-08-07T20:54:36.221Z,17.16
2022-08-07T20:57:08.344Z,17.22
2022-08-07T21:00:06.803Z,17.20
2022-08-07T21:02:53.983Z,17.41
2022-08-07T21:05:42.671Z,17.38
2022-08-07T21:08:15.528Z,17.47
2022-08-07T21:10:46.304Z,17.42
2022-08-07T21:13:17.905Z,17.26
2022-08-07T21:15:59.919Z,17.46
2022-08-07T21:18:34.240Z,17.35
2022-08-07T21:21:03.667Z,17.49
2022-08-07T21:23:49.403Z,17.54
2022-08-07T21:26:30.697Z,17.53
2022-08-07T21:29:02.202Z,17.52
2022-08-07T21:32:41.549Z,17.49
2022-08-07T21:34:31.792Z,17.48
2022-08-07T21:37:05.576Z,17.50
2022-08-07T21:39:54.028Z,17.44
2022-08-07T21:42:42.721Z,17.45
2022-08-07T21:46:08.084Z,17.36
2022-08-07T21:48:29.057Z,17.44
2022-08-07T21:51:07.021Z,17.38
2022-08-07T21:53:46.484Z,17.35
2022-08-07T21:56:39.694Z,17.26
2022-08-07T22:00:02.741Z,17.21
2022-08-07T22:02:28.102Z,17.02
2022-08-07T22:05:00.537Z,16.97
2022-08-07T22:07:35.699Z,16.94
2022-08-07T22:10:24.564Z,16.66
2022-08-07T22:12:55.994Z,16.48
2022-08-07T22:16:38.947Z,16.48
2022-08-07T22:18:24.292Z,16.32
2022-08-07T22:20:56.153Z,16.22
2022-08-07T22:23:30.058Z,16.24
2022-08-07T22:26:06.222Z,16.13
2022-08-07T22:28:39.313Z,16.08
2022-08-07T22:31:31.399Z,16.00
2022-08-07T22:34:07.780Z,15.91
2022-08-07T22:36:46.947Z,15.80
2022-08-07T22:39:23.444Z,15.63
2022-08-07T22:42:03.261Z,15.75
2022-08-07T22:44:58.270Z,15.68
2022-08-07T22:47:49.272Z,15.72
2022-08-07T22:50:43.353Z,15.72
2022-08-07T22:54:06.453Z,15.80
2022-08-07T22:56:29.630Z,15.56
2022-08-07T22:59:11.699Z,15.26
2022-08-07T23:02:03.245Z,15.46
2022-08-07T23:04:58.153Z,15.57
2022-08-07T23:07:44.930Z,15.72
2022-08-07T23:10:36.413Z,15.70
2022-08-07T23:14:09.134Z,15.65
2022-08-07T23:16:44.862Z,15.63
2022-08-07T23:19:52.012Z,15.38
2022-08-07T23:22:39.486Z,15.38
2022-08-07T23:25:22.175Z,15.51
2022-08-07T23:28:28.631Z,15.42
2022-08-07T23:31:11.867Z,15.55
2022-08-07T23:34:34.012Z,15.52
2022-08-07T23:37:19.573Z,15.52
2022-08-07T23:40:03.794Z,15.53
2022-08-07T23:42:48.485Z,15.43
2022-08-07T23:45:33.091Z,15.40
2022-08-07T23:48:30.921Z,15.24
2022-08-07T23:51:01.632Z,15.18
2022-08-07T23:53:51.297Z,15.18
2022-08-07T23:56:27.474Z,15.19
2022-08-07T23:59:10.913Z,15.10
